MSC Magnifica — 3FLO4 — position and weather

sailwx.info

Track history (hours):
 
Tides and Currents Weather Stations Pressure Air Temp Water Temp Dewpoint Dewpoint Depression Visibility Wind Speed Wind Dir Waves Ship Positions

MSC Magnifica

Last reported at 2019-Jul-22 04:26 UTC. Time now 2019-Jul-22 14:39 UTC.
Position N 42°54' E 015°06'.

Length 294 m; draft 7.8 m.

Type: Passenger vessel. MMSI: 352594000.

Date/timePositionNaut miles runAvg speedWind from/ knotsBaromVisibWave heightAir tempDewpointWater temp
2019-Jul-22 04:26N 42°54' E 015°06'921.0
2019-Jul-22 04:00N 43°01' E 014°58'1121.2
2019-Jul-22 03:30N 43°09' E 014°49'1020.9
2019-Jul-22 03:00N 43°17' E 014°39'1121.3
2019-Jul-22 02:30N 43°25' E 014°29'1121.4
2019-Jul-22 02:00N 43°32' E 014°19'1121.3
2019-Jul-22 01:30N 43°39' E 014°08'1121.4
2019-Jul-22 01:00N 43°47' E 013°58'1121.2
2019-Jul-22 00:30N 43°55' E 013°47'1121.3
2019-Jul-22 00:00N 44°01' E 013°35'1121.3
2019-Jul-21 23:30N 44°07' E 013°23'1021.0
2019-Jul-21 23:00N 44°13' E 013°12'1121.2
2019-Jul-21 22:30N 44°24' E 013°07'1121.2
2019-Jul-21 22:00N 44°34' E 013°03'1020.9
2019-Jul-21 21:30N 44°44' E 012°58'1020.8
2019-Jul-21 21:00N 44°53' E 012°52'1020.8
2019-Jul-21 20:30N 45°02' E 012°45'1020.6
2019-Jul-21 20:00N 45°10' E 012°35'1019.0
2019-Jul-21 19:30N 45°17' E 012°26'612.0
2019-Jul-21 19:00N 45°20' E 012°19'3 6.6
2019-Jul-21 18:31N 45°23' E 012°15'4 7.0
2019-Jul-21 18:00N 45°26' E 012°16'1 2.5
2019-Jul-21 17:30N 45°27' E 012°15'0 0.0
2019-Jul-21 17:00N 45°27' E 012°15'0 0.0
2019-Jul-21 16:29N 45°27' E 012°15'0 0.0
2019-Jul-21 15:58N 45°27' E 012°15'0 0.0
2019-Jul-21 15:30N 45°27' E 012°15'0 0.0
2019-Jul-21 14:59N 45°27' E 012°15'0 0.0
2019-Jul-21 14:29N 45°27' E 012°15'0 0.0
2019-Jul-21 13:59N 45°27' E 012°15'0 0.0
2019-Jul-21 13:29N 45°27' E 012°15'0 0.0
2019-Jul-21 12:59N 45°27' E 012°15'0 0.0
2019-Jul-21 12:30N 45°27' E 012°15'0 0.0
2019-Jul-21 12:00N 45°27' E 012°15'0 0.0
2019-Jul-21 11:29N 45°27' E 012°15'0 0.0
2019-Jul-21 10:58N 45°27' E 012°15'0 0.0
2019-Jul-21 10:30N 45°27' E 012°15'0 0.0
2019-Jul-21 10:00N 45°27' E 012°15'0 0.0
2019-Jul-21 09:28N 45°27' E 012°15'0 0.0
2019-Jul-21 09:00N 45°27' E 012°15'1 2.8
2019-Jul-21 08:30N 45°26' E 012°16'3 6.9
2019-Jul-21 08:00N 45°22' E 012°15'3 6.4
2019-Jul-21 07:30N 45°20' E 012°19'3 6.0
2019-Jul-21 07:00N 45°19' E 012°23'2 4.6
2019-Jul-21 06:30N 45°19' E 012°26'2 4.7
2019-Jul-21 06:00N 45°18' E 012°29'2 4.7
2019-Jul-21 05:30N 45°17' E 012°32'2 5.1
2019-Jul-21 05:00N 45°15' E 012°35'4 7.2
2019-Jul-21 04:31N 45°13' E 012°39'1019.1
2019-Jul-21 04:00N 45°06' E 012°49'1020.7
2019-Jul-21 03:30N 44°57' E 012°55'1020.9
2019-Jul-21 03:01N 44°47' E 013°00'1121.0
2019-Jul-21 02:30N 44°37' E 013°05'1020.9
2019-Jul-21 02:00N 44°27' E 013°10'1020.5
2019-Jul-21 01:31N 44°18' E 013°16'1020.6
2019-Jul-21 01:01N 44°11' E 013°26'1020.7
2019-Jul-21 00:30N 44°05' E 013°38'1020.8
2019-Jul-21 00:00N 43°58' E 013°49'1020.8
2019-Jul-20 23:31N 43°52' E 014°00'1020.9
2019-Jul-20 23:01N 43°45' E 014°12'1020.9
2019-Jul-20 22:30N 43°39' E 014°23'1020.9
2019-Jul-20 22:00N 43°32' E 014°34'1121.3
2019-Jul-20 21:30N 43°26' E 014°46'1121.5
2019-Jul-20 21:00N 43°19' E 014°57'1121.6
2019-Jul-20 20:31N 43°12' E 015°09'1121.5
2019-Jul-20 20:00N 43°05' E 015°20'1121.6
2019-Jul-20 19:30N 42°60' E 015°33'1121.8
2019-Jul-20 19:01N 42°56' E 015°47'1121.7
2019-Jul-20 18:30N 42°51' E 016°00'1121.4
2019-Jul-20 18:00N 42°47' E 016°14'1121.1
2019-Jul-20 17:30N 42°43' E 016°27'2221.1
2019-Jul-20 16:27N 42°37' E 016°56'169 7.9
2019-Jul-19 19:06N 40°24' E 019°13'217.6
2019-Jul-19 19:00N 40°22' E 019°14'917.4
2019-Jul-19 18:30N 40°14' E 019°18'27010.2
2019-Jul-18 16:02N 37°09' E 023°30'121.8
2019-Jul-18 16:00N 37°09' E 023°30'1121.4
2019-Jul-18 15:30N 37°19' E 023°35'1020.7
2019-Jul-18 15:00N 37°29' E 023°37'1121.3
2019-Jul-18 14:30N 37°40' E 023°36'1121.2
2019-Jul-18 14:00N 37°51' E 023°36'612.3
2019-Jul-18 13:31N 37°56' E 023°38'0 0.3
2019-Jul-18 12:58N 37°56' E 023°38'0 0.0
2019-Jul-18 12:31N 37°56' E 023°38'0 0.0
2019-Jul-18 11:58N 37°56' E 023°38'0 0.0
2019-Jul-18 11:28N 37°56' E 023°38'0 0.0
2019-Jul-18 11:01N 37°56' E 023°38'0 0.0
2019-Jul-18 10:28N 37°56' E 023°38'0 0.0
2019-Jul-18 09:58N 37°56' E 023°38'0 0.0
2019-Jul-18 09:31N 37°56' E 023°38'0 0.0
2019-Jul-18 08:58N 37°56' E 023°38'0 0.0
2019-Jul-18 08:28N 37°56' E 023°38'0 0.0
2019-Jul-18 08:01N 37°56' E 023°38'0 0.0
2019-Jul-18 07:28N 37°56' E 023°38'0 0.0
2019-Jul-18 06:55N 37°56' E 023°38'0 0.0
2019-Jul-18 06:28N 37°56' E 023°38'0 0.0
2019-Jul-18 05:55N 37°56' E 023°38'0 0.0
2019-Jul-18 05:28N 37°56' E 023°38'0 0.0
2019-Jul-18 04:58N 37°56' E 023°38'0 0.0
2019-Jul-18 04:28N 37°56' E 023°38'0 0.0
2019-Jul-18 03:55N 37°56' E 023°38'0 0.0
2019-Jul-18 03:22N 37°56' E 023°38'0 0.0
2019-Jul-18 02:58N 37°56' E 023°38'0 0.0
2019-Jul-18 02:25N 37°56' E 023°38'0 0.0
2019-Jul-18 01:55N 37°56' E 023°38'0 0.2
2019-Jul-18 01:30N 37°56' E 023°38'2 4.4
2019-Jul-18 01:00N 37°54' E 023°37'612.3
2019-Jul-18 00:30N 37°49' E 023°41'714.3
2019-Jul-18 00:01N 37°43' E 023°44'611.8
2019-Jul-17 23:30N 37°38' E 023°49'510.1
2019-Jul-17 23:00N 37°34' E 023°53'611.4
2019-Jul-17 22:29N 37°30' E 023°59'  
2019-Jul-14 23:27N 44°12' E 013°56'1021.2
2019-Jul-14 22:59N 44°20' E 013°48'1021.4
2019-Jul-14 22:30N 44°29' E 013°40'1021.0
2019-Jul-14 22:00N 44°37' E 013°32'1121.2
2019-Jul-14 21:30N 44°46' E 013°24'1121.2
2019-Jul-14 21:00N 44°55' E 013°16'1121.1
2019-Jul-14 20:30N 45°02' E 013°05'1020.8
2019-Jul-14 20:00N 45°09' E 012°54'1020.8
2019-Jul-14 19:30N 45°16' E 012°43'1019.2
2019-Jul-14 19:00N 45°22' E 012°32'714.1
2019-Jul-14 18:31N 45°26' E 012°24'2 4.5
2019-Jul-14 18:01N 45°26' E 012°21'1 2.8
2019-Jul-14 17:31N 45°26' E 012°19'0 0.0
2019-Jul-14 16:58N 45°26' E 012°19'0 0.0
2019-Jul-14 16:30N 45°26' E 012°19'0 0.0
2019-Jul-14 16:00N 45°26' E 012°19'0 0.0
2019-Jul-14 15:30N 45°26' E 012°19'0 0.0
2019-Jul-14 15:00N 45°26' E 012°19'0 0.0
2019-Jul-14 14:29N 45°26' E 012°19'0 0.0
2019-Jul-14 13:59N 45°26' E 012°19'0 0.0
2019-Jul-14 13:29N 45°26' E 012°19'0 0.0
2019-Jul-14 12:59N 45°26' E 012°19'0 0.0
2019-Jul-14 12:25N 45°26' E 012°19'0 0.0
2019-Jul-14 11:58N 45°26' E 012°19'0 0.0
2019-Jul-14 11:28N 45°26' E 012°19'0 0.0
2019-Jul-14 10:58N 45°26' E 012°19'0 0.0
2019-Jul-14 10:28N 45°26' E 012°19'0 0.0
2019-Jul-14 09:58N 45°26' E 012°19'0 0.0
2019-Jul-14 09:28N 45°26' E 012°19'0 0.0
2019-Jul-14 08:58N 45°26' E 012°19'0 0.0
2019-Jul-14 08:28N 45°26' E 012°19'0 0.0
2019-Jul-14 07:58N 45°26' E 012°19'0 0.0
2019-Jul-14 07:25N 45°26' E 012°19'0 0.0
2019-Jul-14 06:55N 45°26' E 012°19'0 0.0
2019-Jul-14 06:30N 45°26' E 012°19'1 2.7
2019-Jul-14 06:00N 45°26' E 012°20'2 4.2
2019-Jul-14 05:31N 45°26' E 012°23'3 6.6
2019-Jul-14 05:01N 45°25' E 012°27'714.3
2019-Jul-14 04:30N 45°21' E 012°36'1019.7
2019-Jul-14 04:00N 45°14' E 012°46'1121.0
2019-Jul-14 03:30N 45°08' E 012°58'1121.4
2019-Jul-14 03:00N 45°02' E 013°11'1121.5
2019-Jul-14 02:30N 44°55' E 013°22'1121.5
2019-Jul-14 02:00N 44°46' E 013°30'1121.5
2019-Jul-14 01:30N 44°37' E 013°39'1121.3
2019-Jul-14 01:00N 44°28' E 013°48'1121.4
2019-Jul-14 00:30N 44°19' E 013°56'  
Track history (hours):
 
Tides and Currents Weather Stations Pressure Air Temp Water Temp Dewpoint Dewpoint Depression Visibility Wind Speed Wind Dir Waves Ship Positions

MSC Magnifica

Last reported at 2019-Jul-22 04:26 UTC. Time now 2019-Jul-22 14:39 UTC.
Position N 42°54' E 015°06'.

Length 294 m; draft 7.8 m.

Type: Passenger vessel. MMSI: 352594000.

Date/timePositionNaut miles runAvg speedWind from/ knotsBaromVisibWave heightAir tempDewpointWater temp
2019-Jul-22 04:26N 42°54' E 015°06'921.0
2019-Jul-22 04:00N 43°01' E 014°58'1121.2
2019-Jul-22 03:30N 43°09' E 014°49'1020.9
2019-Jul-22 03:00N 43°17' E 014°39'1121.3
2019-Jul-22 02:30N 43°25' E 014°29'1121.4
2019-Jul-22 02:00N 43°32' E 014°19'1121.3
2019-Jul-22 01:30N 43°39' E 014°08'1121.4
2019-Jul-22 01:00N 43°47' E 013°58'1121.2
2019-Jul-22 00:30N 43°55' E 013°47'1121.3
2019-Jul-22 00:00N 44°01' E 013°35'1121.3
2019-Jul-21 23:30N 44°07' E 013°23'1021.0
2019-Jul-21 23:00N 44°13' E 013°12'1121.2
2019-Jul-21 22:30N 44°24' E 013°07'1121.2
2019-Jul-21 22:00N 44°34' E 013°03'1020.9
2019-Jul-21 21:30N 44°44' E 012°58'1020.8
2019-Jul-21 21:00N 44°53' E 012°52'1020.8
2019-Jul-21 20:30N 45°02' E 012°45'1020.6
2019-Jul-21 20:00N 45°10' E 012°35'1019.0
2019-Jul-21 19:30N 45°17' E 012°26'612.0
2019-Jul-21 19:00N 45°20' E 012°19'3 6.6
2019-Jul-21 18:31N 45°23' E 012°15'4 7.0
2019-Jul-21 18:00N 45°26' E 012°16'1 2.5
2019-Jul-21 17:30N 45°27' E 012°15'0 0.0
2019-Jul-21 17:00N 45°27' E 012°15'0 0.0
2019-Jul-21 16:29N 45°27' E 012°15'0 0.0
2019-Jul-21 15:58N 45°27' E 012°15'0 0.0
2019-Jul-21 15:30N 45°27' E 012°15'0 0.0
2019-Jul-21 14:59N 45°27' E 012°15'0 0.0
2019-Jul-21 14:29N 45°27' E 012°15'0 0.0
2019-Jul-21 13:59N 45°27' E 012°15'0 0.0
2019-Jul-21 13:29N 45°27' E 012°15'0 0.0
2019-Jul-21 12:59N 45°27' E 012°15'0 0.0
2019-Jul-21 12:30N 45°27' E 012°15'0 0.0
2019-Jul-21 12:00N 45°27' E 012°15'0 0.0
2019-Jul-21 11:29N 45°27' E 012°15'0 0.0
2019-Jul-21 10:58N 45°27' E 012°15'0 0.0
2019-Jul-21 10:30N 45°27' E 012°15'0 0.0
2019-Jul-21 10:00N 45°27' E 012°15'0 0.0
2019-Jul-21 09:28N 45°27' E 012°15'0 0.0
2019-Jul-21 09:00N 45°27' E 012°15'1 2.8
2019-Jul-21 08:30N 45°26' E 012°16'3 6.9
2019-Jul-21 08:00N 45°22' E 012°15'3 6.4
2019-Jul-21 07:30N 45°20' E 012°19'3 6.0
2019-Jul-21 07:00N 45°19' E 012°23'2 4.6
2019-Jul-21 06:30N 45°19' E 012°26'2 4.7
2019-Jul-21 06:00N 45°18' E 012°29'2 4.7
2019-Jul-21 05:30N 45°17' E 012°32'2 5.1
2019-Jul-21 05:00N 45°15' E 012°35'4 7.2
2019-Jul-21 04:31N 45°13' E 012°39'1019.1
2019-Jul-21 04:00N 45°06' E 012°49'1020.7
2019-Jul-21 03:30N 44°57' E 012°55'1020.9
2019-Jul-21 03:01N 44°47' E 013°00'1121.0
2019-Jul-21 02:30N 44°37' E 013°05'1020.9
2019-Jul-21 02:00N 44°27' E 013°10'1020.5
2019-Jul-21 01:31N 44°18' E 013°16'1020.6
2019-Jul-21 01:01N 44°11' E 013°26'1020.7
2019-Jul-21 00:30N 44°05' E 013°38'1020.8
2019-Jul-21 00:00N 43°58' E 013°49'1020.8
2019-Jul-20 23:31N 43°52' E 014°00'1020.9
2019-Jul-20 23:01N 43°45' E 014°12'1020.9
2019-Jul-20 22:30N 43°39' E 014°23'1020.9
2019-Jul-20 22:00N 43°32' E 014°34'1121.3
2019-Jul-20 21:30N 43°26' E 014°46'1121.5
2019-Jul-20 21:00N 43°19' E 014°57'1121.6
2019-Jul-20 20:31N 43°12' E 015°09'1121.5
2019-Jul-20 20:00N 43°05' E 015°20'1121.6
2019-Jul-20 19:30N 42°60' E 015°33'1121.8
2019-Jul-20 19:01N 42°56' E 015°47'1121.7
2019-Jul-20 18:30N 42°51' E 016°00'1121.4
2019-Jul-20 18:00N 42°47' E 016°14'1121.1
2019-Jul-20 17:30N 42°43' E 016°27'2221.1
2019-Jul-20 16:27N 42°37' E 016°56'169 7.9
2019-Jul-19 19:06N 40°24' E 019°13'217.6
2019-Jul-19 19:00N 40°22' E 019°14'917.4
2019-Jul-19 18:30N 40°14' E 019°18'27010.2
2019-Jul-18 16:02N 37°09' E 023°30'121.8
2019-Jul-18 16:00N 37°09' E 023°30'1121.4
2019-Jul-18 15:30N 37°19' E 023°35'1020.7
2019-Jul-18 15:00N 37°29' E 023°37'1121.3
2019-Jul-18 14:30N 37°40' E 023°36'1121.2
2019-Jul-18 14:00N 37°51' E 023°36'612.3
2019-Jul-18 13:31N 37°56' E 023°38'0 0.3
2019-Jul-18 12:58N 37°56' E 023°38'0 0.0
2019-Jul-18 12:31N 37°56' E 023°38'0 0.0
2019-Jul-18 11:58N 37°56' E 023°38'0 0.0
2019-Jul-18 11:28N 37°56' E 023°38'0 0.0
2019-Jul-18 11:01N 37°56' E 023°38'0 0.0
2019-Jul-18 10:28N 37°56' E 023°38'0 0.0
2019-Jul-18 09:58N 37°56' E 023°38'0 0.0
2019-Jul-18 09:31N 37°56' E 023°38'0 0.0
2019-Jul-18 08:58N 37°56' E 023°38'0 0.0
2019-Jul-18 08:28N 37°56' E 023°38'0 0.0
2019-Jul-18 08:01N 37°56' E 023°38'0 0.0
2019-Jul-18 07:28N 37°56' E 023°38'0 0.0
2019-Jul-18 06:55N 37°56' E 023°38'0 0.0
2019-Jul-18 06:28N 37°56' E 023°38'0 0.0
2019-Jul-18 05:55N 37°56' E 023°38'0 0.0
2019-Jul-18 05:28N 37°56' E 023°38'0 0.0
2019-Jul-18 04:58N 37°56' E 023°38'0 0.0
2019-Jul-18 04:28N 37°56' E 023°38'0 0.0
2019-Jul-18 03:55N 37°56' E 023°38'0 0.0
2019-Jul-18 03:22N 37°56' E 023°38'0 0.0
2019-Jul-18 02:58N 37°56' E 023°38'0 0.0
2019-Jul-18 02:25N 37°56' E 023°38'0 0.0
2019-Jul-18 01:55N 37°56' E 023°38'0 0.2
2019-Jul-18 01:30N 37°56' E 023°38'2 4.4
2019-Jul-18 01:00N 37°54' E 023°37'612.3
2019-Jul-18 00:30N 37°49' E 023°41'714.3
2019-Jul-18 00:01N 37°43' E 023°44'611.8
2019-Jul-17 23:30N 37°38' E 023°49'510.1
2019-Jul-17 23:00N 37°34' E 023°53'611.4
2019-Jul-17 22:29N 37°30' E 023°59'  
2019-Jul-14 23:27N 44°12' E 013°56'1021.2
2019-Jul-14 22:59N 44°20' E 013°48'1021.4
2019-Jul-14 22:30N 44°29' E 013°40'1021.0
2019-Jul-14 22:00N 44°37' E 013°32'1121.2
2019-Jul-14 21:30N 44°46' E 013°24'1121.2
2019-Jul-14 21:00N 44°55' E 013°16'1121.1
2019-Jul-14 20:30N 45°02' E 013°05'1020.8
2019-Jul-14 20:00N 45°09' E 012°54'1020.8
2019-Jul-14 19:30N 45°16' E 012°43'1019.2
2019-Jul-14 19:00N 45°22' E 012°32'714.1
2019-Jul-14 18:31N 45°26' E 012°24'2 4.5
2019-Jul-14 18:01N 45°26' E 012°21'1 2.8
2019-Jul-14 17:31N 45°26' E 012°19'0 0.0
2019-Jul-14 16:58N 45°26' E 012°19'0 0.0
2019-Jul-14 16:30N 45°26' E 012°19'0 0.0
2019-Jul-14 16:00N 45°26' E 012°19'0 0.0
2019-Jul-14 15:30N 45°26' E 012°19'0 0.0
2019-Jul-14 15:00N 45°26' E 012°19'0 0.0
2019-Jul-14 14:29N 45°26' E 012°19'0 0.0
2019-Jul-14 13:59N 45°26' E 012°19'0 0.0
2019-Jul-14 13:29N 45°26' E 012°19'0 0.0
2019-Jul-14 12:59N 45°26' E 012°19'0 0.0
2019-Jul-14 12:25N 45°26' E 012°19'0 0.0
2019-Jul-14 11:58N 45°26' E 012°19'0 0.0
2019-Jul-14 11:28N 45°26' E 012°19'0 0.0
2019-Jul-14 10:58N 45°26' E 012°19'0 0.0
2019-Jul-14 10:28N 45°26' E 012°19'0 0.0
2019-Jul-14 09:58N 45°26' E 012°19'0 0.0
2019-Jul-14 09:28N 45°26' E 012°19'0 0.0
2019-Jul-14 08:58N 45°26' E 012°19'0 0.0
2019-Jul-14 08:28N 45°26' E 012°19'0 0.0
2019-Jul-14 07:58N 45°26' E 012°19'0 0.0
2019-Jul-14 07:25N 45°26' E 012°19'0 0.0
2019-Jul-14 06:55N 45°26' E 012°19'0 0.0
2019-Jul-14 06:30N 45°26' E 012°19'1 2.7
2019-Jul-14 06:00N 45°26' E 012°20'2 4.2
2019-Jul-14 05:31N 45°26' E 012°23'3 6.6
2019-Jul-14 05:01N 45°25' E 012°27'714.3
2019-Jul-14 04:30N 45°21' E 012°36'1019.7
2019-Jul-14 04:00N 45°14' E 012°46'1121.0
2019-Jul-14 03:30N 45°08' E 012°58'1121.4
2019-Jul-14 03:00N 45°02' E 013°11'1121.5
2019-Jul-14 02:30N 44°55' E 013°22'1121.5
2019-Jul-14 02:00N 44°46' E 013°30'1121.5
2019-Jul-14 01:30N 44°37' E 013°39'1121.3
2019-Jul-14 01:00N 44°28' E 013°48'1121.4
2019-Jul-14 00:30N 44°19' E 013°56'  

Dump ship's entire track history